Garland's Hourly Summary for Saturday, May 12, 2018
Hour Temp
(f)
RH
(%)
Solar Rad.
(MJ/m2)
Rainfall
(in)
Wind
(mph)
5/12/2018 12:00 AM 76 51 0 0 8.75
5/12/2018 1:00 AM 74 54 0 0 9.26
5/12/2018 2:00 AM 72 61 0 0 9.6
5/12/2018 3:00 AM 71 66 0 0 9.76
5/12/2018 4:00 AM 71 71 0 0 9.61
5/12/2018 5:00 AM 71 75 0 0 10.83
5/12/2018 6:00 AM 71 76 0 0 7.91
5/12/2018 7:00 AM 70 78 0.03 0 7.79
5/12/2018 8:00 AM 71 78 0.35 0 7.28
5/12/2018 9:00 AM 72 73 0.57 0 8.6
5/12/2018 10:00 AM 74 66 1.39 0 10.65
5/12/2018 11:00 AM 77 57 2.17 0 10.68
5/12/2018 12:00 PM 80 48 2.78 0 10.89
5/12/2018 1:00 PM 81 45 2.6 0 9.9
5/12/2018 2:00 PM 83 38 2.94 0 10.66
5/12/2018 3:00 PM 84 36 2.98 0 10.76
5/12/2018 4:00 PM 85 36 2.6 0 10.8
5/12/2018 5:00 PM 85 36 2.15 0 10.23
5/12/2018 6:00 PM 86 36 1.65 0 10.79
5/12/2018 7:00 PM 84 39 0.8 0 10.53
5/12/2018 8:00 PM 83 41 0.32 0 8.5
5/12/2018 9:00 PM 81 44 0.01 0 6.05
5/12/2018 10:00 PM 79 50 0 0 5.3
5/12/2018 11:00 PM 77 55 0 0 5.68
Data Summary 77 54 23.34 0.00 9.20